sensor_id;sensor_type;location;lat;lon;timestamp;pressure;altitude;pressure_sealevel;temperature;humidity
41800;BME280;27468;47.460;19.034;2024-02-28T00:01:23;100322.31;;;12.52;87.31
41800;BME280;27468;47.460;19.034;2024-02-28T00:03:49;100366.59;;;12.75;86.55
41800;BME280;27468;47.460;19.034;2024-02-28T00:06:16;100335.22;;;12.64;85.36
41800;BME280;27468;47.460;19.034;2024-02-28T00:08:42;100333.78;;;12.52;85.57
41800;BME280;27468;47.460;19.034;2024-02-28T00:11:07;100363.34;;;12.67;86.00
41800;BME280;27468;47.460;19.034;2024-02-28T00:13:32;100335.34;;;12.60;85.36
41800;BME280;27468;47.460;19.034;2024-02-28T00:15:58;100329.13;;;12.61;85.63
41800;BME280;27468;47.460;19.034;2024-02-28T00:18:23;100358.59;;;12.78;86.62
41800;BME280;27468;47.460;19.034;2024-02-28T00:20:49;100356.84;;;12.77;86.80
41800;BME280;27468;47.460;19.034;2024-02-28T00:23:14;100349.47;;;12.59;85.92
41800;BME280;27468;47.460;19.034;2024-02-28T00:25:39;100333.59;;;12.59;86.97
41800;BME280;27468;47.460;19.034;2024-02-28T00:28:05;100322.38;;;12.50;86.44
41800;BME280;27468;47.460;19.034;2024-02-28T00:30:30;100358.00;;;12.68;86.56
41800;BME280;27468;47.460;19.034;2024-02-28T00:32:57;100351.00;;;12.67;85.69
41800;BME280;27468;47.460;19.034;2024-02-28T00:35:22;100349.56;;;12.55;84.89
41800;BME280;27468;47.460;19.034;2024-02-28T00:37:47;100338.13;;;12.22;85.63
41800;BME280;27468;47.460;19.034;2024-02-28T00:40:12;100337.31;;;12.20;86.82
41800;BME280;27468;47.460;19.034;2024-02-28T00:42:38;100333.84;;;12.18;86.81
41800;BME280;27468;47.460;19.034;2024-02-28T00:45:03;100350.78;;;12.11;87.23
41800;BME280;27468;47.460;19.034;2024-02-28T00:47:29;100343.72;;;12.12;87.24
41800;BME280;27468;47.460;19.034;2024-02-28T00:49:54;100363.91;;;12.47;86.39
41800;BME280;27468;47.460;19.034;2024-02-28T00:52:19;100349.72;;;12.49;86.42
41800;BME280;27468;47.460;19.034;2024-02-28T00:54:45;100367.41;;;12.47;86.88
41800;BME280;27468;47.460;19.034;2024-02-28T00:57:10;100369.03;;;12.53;86.88
41800;BME280;27468;47.460;19.034;2024-02-28T00:59:36;100326.19;;;12.40;86.42
41800;BME280;27468;47.460;19.034;2024-02-28T01:02:01;100356.63;;;12.55;86.33
41800;BME280;27468;47.460;19.034;2024-02-28T01:04:28;100364.38;;;12.61;86.18
41800;BME280;27468;47.460;19.034;2024-02-28T01:06:53;100369.69;;;12.61;85.74
41800;BME280;27468;47.460;19.034;2024-02-28T01:09:19;100345.44;;;12.45;85.90
41800;BME280;27468;47.460;19.034;2024-02-28T01:11:44;100358.34;;;12.56;86.42
41800;BME280;27468;47.460;19.034;2024-02-28T01:14:09;100356.63;;;12.55;87.10
41800;BME280;27468;47.460;19.034;2024-02-28T01:16:34;100338.59;;;12.38;86.54
41800;BME280;27468;47.460;19.034;2024-02-28T01:19:00;100368.50;;;12.40;86.46
41800;BME280;27468;47.460;19.034;2024-02-28T01:21:25;100332.50;;;12.35;86.68
41800;BME280;27468;47.460;19.034;2024-02-28T01:23:51;100314.50;;;12.16;86.42
41800;BME280;27468;47.460;19.034;2024-02-28T01:26:16;100348.66;;;12.24;86.53
41800;BME280;27468;47.460;19.034;2024-02-28T01:28:42;100337.97;;;11.96;87.71
41800;BME280;27468;47.460;19.034;2024-02-28T01:31:08;100323.19;;;11.89;88.28
41800;BME280;27468;47.460;19.034;2024-02-28T01:33:33;100352.72;;;12.05;88.42
41800;BME280;27468;47.460;19.034;2024-02-28T01:35:58;100373.75;;;12.09;87.97
41800;BME280;27468;47.460;19.034;2024-02-28T01:38:24;100329.38;;;11.88;88.29
41800;BME280;27468;47.460;19.034;2024-02-28T01:40:49;100373.53;;;12.17;87.35
41800;BME280;27468;47.460;19.034;2024-02-28T01:43:14;100355.81;;;12.20;88.17
41800;BME280;27468;47.460;19.034;2024-02-28T01:45:40;100346.06;;;12.22;88.24
41800;BME280;27468;47.460;19.034;2024-02-28T01:48:06;100353.78;;;12.30;88.72
41800;BME280;27468;47.460;19.034;2024-02-28T01:50:35;100360.88;;;12.28;88.09
41800;BME280;27468;47.460;19.034;2024-02-28T01:53:02;100371.53;;;12.25;88.20
41800;BME280;27468;47.460;19.034;2024-02-28T01:55:29;100368.97;;;12.22;87.83
41800;BME280;27468;47.460;19.034;2024-02-28T01:57:55;100342.94;;;12.08;88.33
41800;BME280;27468;47.460;19.034;2024-02-28T02:00:21;100382.16;;;12.23;88.97
41800;BME280;27468;47.460;19.034;2024-02-28T02:02:48;100368.38;;;12.12;88.85
41800;BME280;27468;47.460;19.034;2024-02-28T02:05:13;100374.66;;;12.08;89.06
41800;BME280;27468;47.460;19.034;2024-02-28T02:07:41;100391.34;;;12.10;89.28
41800;BME280;27468;47.460;19.034;2024-02-28T02:10:07;100350.41;;;11.93;89.66
41800;BME280;27468;47.460;19.034;2024-02-28T02:12:35;100352.25;;;11.89;89.84
41800;BME280;27468;47.460;19.034;2024-02-28T02:15:00;100372.41;;;11.93;89.99
41800;BME280;27468;47.460;19.034;2024-02-28T02:17:26;100382.94;;;11.95;90.21
41800;BME280;27468;47.460;19.034;2024-02-28T02:19:51;100355.94;;;11.82;91.01
41800;BME280;27468;47.460;19.034;2024-02-28T02:22:17;100375.34;;;11.81;90.92
41800;BME280;27468;47.460;19.034;2024-02-28T02:24:43;100376.94;;;11.88;90.54
41800;BME280;27468;47.460;19.034;2024-02-28T02:27:08;100402.84;;;12.08;90.20
41800;BME280;27468;47.460;19.034;2024-02-28T02:29:34;100389.00;;;11.98;89.99
41800;BME280;27468;47.460;19.034;2024-02-28T02:31:59;100376.94;;;11.88;89.63
41800;BME280;27468;47.460;19.034;2024-02-28T02:34:24;100392.53;;;11.99;89.18
41800;BME280;27468;47.460;19.034;2024-02-28T02:36:50;100378.41;;;11.63;90.11
41800;BME280;27468;47.460;19.034;2024-02-28T02:39:15;100402.56;;;11.47;89.97
41800;BME280;27468;47.460;19.034;2024-02-28T02:41:41;100405.78;;;11.58;89.74
41800;BME280;27468;47.460;19.034;2024-02-28T02:44:07;100400.53;;;11.57;89.00
41800;BME280;27468;47.460;19.034;2024-02-28T02:46:32;100397.31;;;11.46;88.39
41800;BME280;27468;47.460;19.034;2024-02-28T02:48:58;100409.31;;;11.57;87.30
41800;BME280;27468;47.460;19.034;2024-02-28T02:51:23;100381.78;;;11.32;87.79
41800;BME280;27468;47.460;19.034;2024-02-28T02:53:49;100411.59;;;11.37;87.61
41800;BME280;27468;47.460;19.034;2024-02-28T02:56:14;100395.41;;;11.52;86.94
41800;BME280;27468;47.460;19.034;2024-02-28T02:58:39;100375.97;;;11.55;86.19
41800;BME280;27468;47.460;19.034;2024-02-28T03:01:05;100413.75;;;11.57;86.68
41800;BME280;27468;47.460;19.034;2024-02-28T03:03:30;100408.28;;;11.65;86.52
41800;BME280;27468;47.460;19.034;2024-02-28T03:05:56;100394.94;;;11.71;86.46
41800;BME280;27468;47.460;19.034;2024-02-28T03:08:21;100404.38;;;11.82;86.66
41800;BME280;27468;47.460;19.034;2024-02-28T03:10:46;100406.72;;;11.95;87.30
41800;BME280;27468;47.460;19.034;2024-02-28T03:13:11;100408.44;;;11.96;86.85
41800;BME280;27468;47.460;19.034;2024-02-28T03:15:37;100408.41;;;11.97;86.60
41800;BME280;27468;47.460;19.034;2024-02-28T03:18:02;100403.16;;;11.96;87.20
41800;BME280;27468;47.460;19.034;2024-02-28T03:20:28;100386.03;;;11.75;86.71
41800;BME280;27468;47.460;19.034;2024-02-28T03:22:53;100421.00;;;11.86;87.45
41800;BME280;27468;47.460;19.034;2024-02-28T03:25:19;100433.97;;;11.97;87.04
41800;BME280;27468;47.460;19.034;2024-02-28T03:27:44;100391.09;;;11.85;87.37
41800;BME280;27468;47.460;19.034;2024-02-28T03:30:10;100442.22;;;12.17;88.17
41800;BME280;27468;47.460;19.034;2024-02-28T03:32:35;100435.38;;;12.11;87.96
41800;BME280;27468;47.460;19.034;2024-02-28T03:35:00;100422.38;;;12.02;86.42
41800;BME280;27468;47.460;19.034;2024-02-28T03:37:26;100436.88;;;11.86;82.91
41800;BME280;27468;47.460;19.034;2024-02-28T03:39:51;100410.88;;;11.66;81.58
41800;BME280;27468;47.460;19.034;2024-02-28T03:42:17;100406.19;;;11.80;81.40
41800;BME280;27468;47.460;19.034;2024-02-28T03:44:42;100441.84;;;11.98;82.87
41800;BME280;27468;47.460;19.034;2024-02-28T03:47:08;100411.47;;;11.80;81.87
41800;BME280;27468;47.460;19.034;2024-02-28T03:49:33;100443.91;;;11.85;82.77
41800;BME280;27468;47.460;19.034;2024-02-28T03:51:59;100435.63;;;11.62;84.29
41800;BME280;27468;47.460;19.034;2024-02-28T03:54:25;100413.69;;;11.58;84.45
41800;BME280;27468;47.460;19.034;2024-02-28T03:56:50;100443.19;;;11.79;84.89
41800;BME280;27468;47.460;19.034;2024-02-28T03:59:16;100415.00;;;11.42;86.42
41800;BME280;27468;47.460;19.034;2024-02-28T04:01:41;100443.63;;;11.59;84.65
41800;BME280;27468;47.460;19.034;2024-02-28T04:04:06;100423.06;;;11.35;84.41
41800;BME280;27468;47.460;19.034;2024-02-28T04:06:32;100432.34;;;11.52;84.32
41800;BME280;27468;47.460;19.034;2024-02-28T04:08:57;100463.09;;;11.55;84.96
41800;BME280;27468;47.460;19.034;2024-02-28T04:11:23;100458.28;;;11.72;83.94
41800;BME280;27468;47.460;19.034;2024-02-28T04:13:49;100440.78;;;11.68;83.48
41800;BME280;27468;47.460;19.034;2024-02-28T04:16:14;100419.03;;;11.57;83.20
41800;BME280;27468;47.460;19.034;2024-02-28T04:18:39;100463.06;;;11.95;82.90
41800;BME280;27468;47.460;19.034;2024-02-28T04:21:05;100460.31;;;12.00;82.64
41800;BME280;27468;47.460;19.034;2024-02-28T04:23:30;100467.19;;;12.07;82.88
41800;BME280;27468;47.460;19.034;2024-02-28T04:25:55;100456.03;;;11.94;82.52
41800;BME280;27468;47.460;19.034;2024-02-28T04:28:20;100434.25;;;11.84;82.08
41800;BME280;27468;47.460;19.034;2024-02-28T04:30:46;100440.72;;;11.70;82.17
41800;BME280;27468;47.460;19.034;2024-02-28T04:33:11;100441.13;;;11.54;82.89
41800;BME280;27468;47.460;19.034;2024-02-28T04:35:36;100456.88;;;11.56;83.63
41800;BME280;27468;47.460;19.034;2024-02-28T04:38:02;100455.38;;;11.46;83.45
41800;BME280;27468;47.460;19.034;2024-02-28T04:40:27;100432.91;;;11.28;82.01
41800;BME280;27468;47.460;19.034;2024-02-28T04:42:52;100400.72;;;11.11;81.43
41800;BME280;27468;47.460;19.034;2024-02-28T04:45:18;100445.59;;;11.51;81.32
41800;BME280;27468;47.460;19.034;2024-02-28T04:47:43;100436.75;;;11.53;80.48
41800;BME280;27468;47.460;19.034;2024-02-28T04:50:09;100447.31;;;11.53;79.52
41800;BME280;27468;47.460;19.034;2024-02-28T04:52:34;100431.59;;;11.47;79.41
41800;BME280;27468;47.460;19.034;2024-02-28T04:55:00;100466.06;;;11.80;78.50
41800;BME280;27468;47.460;19.034;2024-02-28T04:57:25;100460.03;;;11.73;79.00
41800;BME280;27468;47.460;19.034;2024-02-28T04:59:51;100471.81;;;11.57;79.35
41800;BME280;27468;47.460;19.034;2024-02-28T05:02:16;100466.84;;;11.45;79.62
41800;BME280;27468;47.460;19.034;2024-02-28T05:04:42;100453.50;;;11.51;78.95
41800;BME280;27468;47.460;19.034;2024-02-28T05:07:08;100457.81;;;11.55;77.88
41800;BME280;27468;47.460;19.034;2024-02-28T05:09:33;100449.75;;;11.59;77.21
41800;BME280;27468;47.460;19.034;2024-02-28T05:11:59;100468.22;;;11.61;76.43
41800;BME280;27468;47.460;19.034;2024-02-28T05:14:24;100452.94;;;11.37;76.63
41800;BME280;27468;47.460;19.034;2024-02-28T05:16:50;100454.75;;;11.35;76.42
41800;BME280;27468;47.460;19.034;2024-02-28T05:19:15;100486.66;;;11.63;76.57
41800;BME280;27468;47.460;19.034;2024-02-28T05:21:43;100496.00;;;11.80;76.04
41800;BME280;27468;47.460;19.034;2024-02-28T05:24:09;100511.72;;;11.85;75.63
41800;BME280;27468;47.460;19.034;2024-02-28T05:26:35;100491.59;;;11.79;75.80
41800;BME280;27468;47.460;19.034;2024-02-28T05:29:03;100485.69;;;11.67;75.12
41800;BME280;27468;47.460;19.034;2024-02-28T05:31:29;100517.19;;;11.76;74.94
41800;BME280;27468;47.460;19.034;2024-02-28T05:33:55;100498.03;;;11.66;74.93
41800;BME280;27468;47.460;19.034;2024-02-28T05:36:25;100511.44;;;11.57;75.93
41800;BME280;27468;47.460;19.034;2024-02-28T05:38:51;100501.78;;;11.56;74.84
41800;BME280;27468;47.460;19.034;2024-02-28T05:41:17;100504.31;;;11.61;74.97
41800;BME280;27468;47.460;19.034;2024-02-28T05:43:43;100502.50;;;11.63;74.97
41800;BME280;27468;47.460;19.034;2024-02-28T05:46:08;100510.75;;;11.49;75.60
41800;BME280;27468;47.460;19.034;2024-02-28T05:48:33;100477.84;;;11.23;75.42
41800;BME280;27468;47.460;19.034;2024-02-28T05:51:01;100523.09;;;11.48;75.39
41800;BME280;27468;47.460;19.034;2024-02-28T05:53:27;100486.34;;;11.38;74.79
41800;BME280;27468;47.460;19.034;2024-02-28T05:55:53;100481.28;;;11.29;75.22
41800;BME280;27468;47.460;19.034;2024-02-28T05:58:22;100513.50;;;11.44;75.45
41800;BME280;27468;47.460;19.034;2024-02-28T06:00:48;100525.75;;;11.47;74.71
41800;BME280;27468;47.460;19.034;2024-02-28T06:03:13;100529.16;;;11.53;74.71
41800;BME280;27468;47.460;19.034;2024-02-28T06:05:39;100507.50;;;11.36;74.76
41800;BME280;27468;47.460;19.034;2024-02-28T06:08:04;100534.31;;;11.58;74.95
41800;BME280;27468;47.460;19.034;2024-02-28T06:10:30;100510.81;;;11.46;73.70
41800;BME280;27468;47.460;19.034;2024-02-28T06:12:55;100530.81;;;11.56;74.54
41800;BME280;27468;47.460;19.034;2024-02-28T06:15:21;100533.41;;;11.59;74.84
41800;BME280;27468;47.460;19.034;2024-02-28T06:17:46;100500.72;;;11.65;74.52
41800;BME280;27468;47.460;19.034;2024-02-28T06:20:11;100529.94;;;11.97;73.69
41800;BME280;27468;47.460;19.034;2024-02-28T06:22:37;100526.66;;;11.87;73.11
41800;BME280;27468;47.460;19.034;2024-02-28T06:25:02;100518.28;;;11.66;73.45
41800;BME280;27468;47.460;19.034;2024-02-28T06:27:28;100497.63;;;11.46;74.28
41800;BME280;27468;47.460;19.034;2024-02-28T06:29:53;100519.69;;;11.43;74.46
41800;BME280;27468;47.460;19.034;2024-02-28T06:32:18;100541.22;;;11.64;73.98
41800;BME280;27468;47.460;19.034;2024-02-28T06:34:44;100528.91;;;11.63;73.84
41800;BME280;27468;47.460;19.034;2024-02-28T06:37:09;100526.31;;;11.61;74.15
41800;BME280;27468;47.460;19.034;2024-02-28T06:39:34;100537.69;;;11.65;74.30
41800;BME280;27468;47.460;19.034;2024-02-28T06:42:00;100527.31;;;11.55;74.46
41800;BME280;27468;47.460;19.034;2024-02-28T06:44:25;100530.97;;;11.50;74.82
41800;BME280;27468;47.460;19.034;2024-02-28T06:46:50;100522.25;;;11.46;74.12
41800;BME280;27468;47.460;19.034;2024-02-28T06:49:16;100501.69;;;11.19;74.71
41800;BME280;27468;47.460;19.034;2024-02-28T06:51:43;100520.06;;;11.25;75.32
41800;BME280;27468;47.460;19.034;2024-02-28T06:54:09;100533.16;;;11.30;75.15
41800;BME280;27468;47.460;19.034;2024-02-28T06:56:35;100519.19;;;11.24;74.95
41800;BME280;27468;47.460;19.034;2024-02-28T06:59:01;100553.09;;;11.44;75.42
41800;BME280;27468;47.460;19.034;2024-02-28T07:01:26;100542.50;;;11.46;74.92
41800;BME280;27468;47.460;19.034;2024-02-28T07:03:52;100555.78;;;11.43;75.22
41800;BME280;27468;47.460;19.034;2024-02-28T07:06:17;100519.81;;;11.37;74.74
41800;BME280;27468;47.460;19.034;2024-02-28T07:08:42;100570.88;;;11.76;74.11
41800;BME280;27468;47.460;19.034;2024-02-28T07:11:14;100564.09;;;11.65;73.87
41800;BME280;27468;47.460;19.034;2024-02-28T07:13:40;100574.47;;;11.74;73.86
41800;BME280;27468;47.460;19.034;2024-02-28T07:16:06;100563.97;;;11.71;76.03
41800;BME280;27468;47.460;19.034;2024-02-28T07:18:31;100571.59;;;11.86;76.47
41800;BME280;27468;47.460;19.034;2024-02-28T07:20:57;100592.53;;;11.95;76.79
41800;BME280;27468;47.460;19.034;2024-02-28T07:23:22;100589.41;;;11.75;77.93
41800;BME280;27468;47.460;19.034;2024-02-28T07:25:51;100564.72;;;11.77;78.50
41800;BME280;27468;47.460;19.034;2024-02-28T07:28:16;100582.03;;;11.92;78.46
41800;BME280;27468;47.460;19.034;2024-02-28T07:30:41;100585.66;;;11.86;79.14
41800;BME280;27468;47.460;19.034;2024-02-28T07:33:09;100589.47;;;11.72;80.70
41800;BME280;27468;47.460;19.034;2024-02-28T07:35:46;100567.47;;;11.71;77.24
41800;BME280;27468;47.460;19.034;2024-02-28T07:38:12;100569.94;;;11.80;74.75
41800;BME280;27468;47.460;19.034;2024-02-28T07:40:38;100591.59;;;11.98;74.02
41800;BME280;27468;47.460;19.034;2024-02-28T07:43:03;100602.97;;;12.01;73.13
41800;BME280;27468;47.460;19.034;2024-02-28T07:45:29;100597.53;;;12.07;74.36
41800;BME280;27468;47.460;19.034;2024-02-28T07:47:54;100595.50;;;12.18;73.04
41800;BME280;27468;47.460;19.034;2024-02-28T07:50:19;100592.72;;;12.24;72.10
41800;BME280;27468;47.460;19.034;2024-02-28T07:52:46;100604.75;;;12.38;71.44
41800;BME280;27468;47.460;19.034;2024-02-28T07:55:12;100610.66;;;12.49;71.18
41800;BME280;27468;47.460;19.034;2024-02-28T07:57:38;100602.81;;;12.44;71.70
41800;BME280;27468;47.460;19.034;2024-02-28T08:00:04;100609.72;;;12.51;71.40
41800;BME280;27468;47.460;19.034;2024-02-28T08:02:29;100602.06;;;12.39;72.95
41800;BME280;27468;47.460;19.034;2024-02-28T08:04:56;100589.91;;;12.32;70.87
41800;BME280;27468;47.460;19.034;2024-02-28T08:07:21;100602.94;;;12.40;70.10
41800;BME280;27468;47.460;19.034;2024-02-28T08:09:46;100615.41;;;12.35;69.55
41800;BME280;27468;47.460;19.034;2024-02-28T08:12:12;100603.88;;;12.37;70.21
41800;BME280;27468;47.460;19.034;2024-02-28T08:14:37;100585.56;;;12.30;69.74
41800;BME280;27468;47.460;19.034;2024-02-28T08:17:03;100593.63;;;12.23;70.85
41800;BME280;27468;47.460;19.034;2024-02-28T08:19:28;100601.38;;;12.31;70.57
41800;BME280;27468;47.460;19.034;2024-02-28T08:21:53;100618.75;;;12.41;70.02
41800;BME280;27468;47.460;19.034;2024-02-28T08:24:18;100599.03;;;12.17;70.46
41800;BME280;27468;47.460;19.034;2024-02-28T08:26:44;100597.06;;;12.27;70.84
41800;BME280;27468;47.460;19.034;2024-02-28T08:29:09;100627.63;;;12.39;71.74
41800;BME280;27468;47.460;19.034;2024-02-28T08:31:40;100626.88;;;12.34;71.31
41800;BME280;27468;47.460;19.034;2024-02-28T08:34:06;100617.31;;;12.28;71.07
41800;BME280;27468;47.460;19.034;2024-02-28T08:36:31;100626.09;;;12.29;71.85
41800;BME280;27468;47.460;19.034;2024-02-28T08:38:56;100597.09;;;12.26;70.35
41800;BME280;27468;47.460;19.034;2024-02-28T08:41:22;100616.13;;;12.41;70.00
41800;BME280;27468;47.460;19.034;2024-02-28T08:43:47;100614.53;;;12.34;69.73
41800;BME280;27468;47.460;19.034;2024-02-28T08:46:15;100595.22;;;12.31;69.85
41800;BME280;27468;47.460;19.034;2024-02-28T08:48:43;100615.88;;;12.52;69.61
41800;BME280;27468;47.460;19.034;2024-02-28T08:51:09;100622.91;;;12.53;69.52
41800;BME280;27468;47.460;19.034;2024-02-28T08:53:34;100626.19;;;12.63;69.56
41800;BME280;27468;47.460;19.034;2024-02-28T08:55:59;100600.50;;;12.68;68.39
41800;BME280;27468;47.460;19.034;2024-02-28T08:58:25;100627.53;;;12.79;68.55
41800;BME280;27468;47.460;19.034;2024-02-28T09:00:50;100614.16;;;12.85;67.65
41800;BME280;27468;47.460;19.034;2024-02-28T09:03:16;100594.84;;;12.81;68.30
41800;BME280;27468;47.460;19.034;2024-02-28T09:05:41;100607.00;;;12.88;67.52
41800;BME280;27468;47.460;19.034;2024-02-28T09:08:06;100637.44;;;13.06;67.48
41800;BME280;27468;47.460;19.034;2024-02-28T09:10:32;100620.75;;;13.03;67.00
41800;BME280;27468;47.460;19.034;2024-02-28T09:12:59;100625.94;;;13.07;67.16
41800;BME280;27468;47.460;19.034;2024-02-28T09:15:25;100618.22;;;12.98;68.06
41800;BME280;27468;47.460;19.034;2024-02-28T09:17:50;100623.91;;;13.18;66.87
41800;BME280;27468;47.460;19.034;2024-02-28T09:20:15;100605.06;;;13.29;66.36
41800;BME280;27468;47.460;19.034;2024-02-28T09:22:42;100615.63;;;13.62;65.96
41800;BME280;27468;47.460;19.034;2024-02-28T09:25:07;100617.03;;;13.75;65.13
41800;BME280;27468;47.460;19.034;2024-02-28T09:27:34;100601.34;;;13.67;65.58
41800;BME280;27468;47.460;19.034;2024-02-28T09:29:59;100611.75;;;13.73;64.70
41800;BME280;27468;47.460;19.034;2024-02-28T09:32:24;100628.09;;;13.87;64.66
41800;BME280;27468;47.460;19.034;2024-02-28T09:34:50;100607.69;;;13.91;63.47
41800;BME280;27468;47.460;19.034;2024-02-28T09:37:15;100624.41;;;14.23;63.53
41800;BME280;27468;47.460;19.034;2024-02-28T09:39:42;100614.75;;;14.20;63.44
41800;BME280;27468;47.460;19.034;2024-02-28T09:42:07;100617.84;;;14.34;62.71
41800;BME280;27468;47.460;19.034;2024-02-28T09:44:34;100616.72;;;14.43;62.32
41800;BME280;27468;47.460;19.034;2024-02-28T09:46:59;100618.97;;;14.27;62.11
41800;BME280;27468;47.460;19.034;2024-02-28T09:49:26;100632.94;;;14.32;62.12
41800;BME280;27468;47.460;19.034;2024-02-28T09:51:52;100625.03;;;14.31;61.64
41800;BME280;27468;47.460;19.034;2024-02-28T09:54:18;100630.53;;;14.25;62.26
41800;BME280;27468;47.460;19.034;2024-02-28T09:56:43;100605.63;;;14.01;62.89
41800;BME280;27468;47.460;19.034;2024-02-28T09:59:10;100608.78;;;14.13;63.19
41800;BME280;27468;47.460;19.034;2024-02-28T10:01:42;100622.47;;;14.28;62.39
41800;BME280;27468;47.460;19.034;2024-02-28T10:04:09;100607.56;;;14.24;62.42
41800;BME280;27468;47.460;19.034;2024-02-28T10:06:36;100616.88;;;14.37;61.66
41800;BME280;27468;47.460;19.034;2024-02-28T10:09:01;100636.38;;;14.36;61.28
41800;BME280;27468;47.460;19.034;2024-02-28T10:11:26;100611.97;;;14.25;62.33
41800;BME280;27468;47.460;19.034;2024-02-28T10:13:52;100627.44;;;14.38;61.85
41800;BME280;27468;47.460;19.034;2024-02-28T10:16:17;100615.97;;;14.38;61.69
41800;BME280;27468;47.460;19.034;2024-02-28T10:18:43;100647.19;;;14.58;61.54
41800;BME280;27468;47.460;19.034;2024-02-28T10:21:10;100642.66;;;14.61;60.97
41800;BME280;27468;47.460;19.034;2024-02-28T10:23:37;100630.09;;;14.66;61.08
41800;BME280;27468;47.460;19.034;2024-02-28T10:26:03;100646.03;;;14.66;61.08
41800;BME280;27468;47.460;19.034;2024-02-28T10:28:28;100642.44;;;14.67;61.24
41800;BME280;27468;47.460;19.034;2024-02-28T10:30:54;100615.28;;;14.59;61.03
41800;BME280;27468;47.460;19.034;2024-02-28T10:33:19;100627.06;;;14.78;60.64
41800;BME280;27468;47.460;19.034;2024-02-28T10:35:45;100627.75;;;14.83;60.18
41800;BME280;27468;47.460;19.034;2024-02-28T10:38:13;100639.72;;;14.97;60.08
41800;BME280;27468;47.460;19.034;2024-02-28T10:40:42;100634.34;;;14.98;60.27
41800;BME280;27468;47.460;19.034;2024-02-28T10:43:10;100617.34;;;14.77;59.97
41800;BME280;27468;47.460;19.034;2024-02-28T10:45:39;100625.69;;;14.93;59.33
41800;BME280;27468;47.460;19.034;2024-02-28T10:48:05;100642.06;;;15.04;59.47
41800;BME280;27468;47.460;19.034;2024-02-28T10:50:31;100629.09;;;15.22;58.82
41800;BME280;27468;47.460;19.034;2024-02-28T10:53:00;100631.66;;;15.25;58.19
41800;BME280;27468;47.460;19.034;2024-02-28T10:55:35;100629.19;;;15.18;58.55
41800;BME280;27468;47.460;19.034;2024-02-28T10:58:07;100623.88;;;15.18;58.54
41800;BME280;27468;47.460;19.034;2024-02-28T11:00:34;100633.34;;;15.52;58.52
41800;BME280;27468;47.460;19.034;2024-02-28T11:03:01;100640.91;;;15.63;57.65
41800;BME280;27468;47.460;19.034;2024-02-28T11:05:41;100624.91;;;15.64;57.81
41800;BME280;27468;47.460;19.034;2024-02-28T11:08:10;100641.13;;;15.81;58.30
41800;BME280;27468;47.460;19.034;2024-02-28T11:10:43;100643.66;;;15.84;57.13
41800;BME280;27468;47.460;19.034;2024-02-28T11:13:09;100632.91;;;15.88;57.16
41800;BME280;27468;47.460;19.034;2024-02-28T11:15:36;100630.59;;;16.02;56.84
41800;BME280;27468;47.460;19.034;2024-02-28T11:18:08;100610.53;;;15.93;56.58
41800;BME280;27468;47.460;19.034;2024-02-28T11:20:35;100630.94;;;15.93;56.21
41800;BME280;27468;47.460;19.034;2024-02-28T11:23:00;100612.91;;;15.77;56.92
41800;BME280;27468;47.460;19.034;2024-02-28T11:25:25;100623.50;;;16.02;56.40
41800;BME280;27468;47.460;19.034;2024-02-28T11:27:51;100614.34;;;16.09;55.97
41800;BME280;27468;47.460;19.034;2024-02-28T11:30:16;100625.34;;;16.00;56.18
41800;BME280;27468;47.460;19.034;2024-02-28T11:32:42;100615.97;;;16.13;56.11
41800;BME280;27468;47.460;19.034;2024-02-28T11:35:07;100630.38;;;16.30;56.25
41800;BME280;27468;47.460;19.034;2024-02-28T11:37:34;100600.38;;;16.26;55.88
41800;BME280;27468;47.460;19.034;2024-02-28T11:39:59;100617.22;;;16.48;55.78
41800;BME280;27468;47.460;19.034;2024-02-28T11:42:24;100613.31;;;16.57;55.61
41800;BME280;27468;47.460;19.034;2024-02-28T11:44:53;100615.47;;;16.47;54.79
41800;BME280;27468;47.460;19.034;2024-02-28T11:47:22;100609.03;;;16.53;55.25
41800;BME280;27468;47.460;19.034;2024-02-28T11:49:47;100592.03;;;16.35;54.93
41800;BME280;27468;47.460;19.034;2024-02-28T11:52:14;100616.66;;;16.40;54.66
41800;BME280;27468;47.460;19.034;2024-02-28T11:54:39;100618.78;;;16.54;54.59
41800;BME280;27468;47.460;19.034;2024-02-28T11:57:05;100608.84;;;16.36;55.24
41800;BME280;27468;47.460;19.034;2024-02-28T11:59:31;100582.06;;;16.18;55.79
41800;BME280;27468;47.460;19.034;2024-02-28T12:01:56;100578.72;;;16.13;54.97
41800;BME280;27468;47.460;19.034;2024-02-28T12:04:24;100596.47;;;16.35;55.18
41800;BME280;27468;47.460;19.034;2024-02-28T12:06:49;100591.66;;;16.44;55.22
41800;BME280;27468;47.460;19.034;2024-02-28T12:09:16;100601.88;;;16.55;54.71
41800;BME280;27468;47.460;19.034;2024-02-28T12:11:43;100588.31;;;16.61;54.53
41800;BME280;27468;47.460;19.034;2024-02-28T12:14:09;100602.41;;;16.65;54.47
41800;BME280;27468;47.460;19.034;2024-02-28T12:16:39;100600.00;;;16.57;55.45
41800;BME280;27468;47.460;19.034;2024-02-28T12:19:09;100594.81;;;16.54;54.52
41800;BME280;27468;47.460;19.034;2024-02-28T12:21:36;100602.34;;;16.66;54.63
41800;BME280;27468;47.460;19.034;2024-02-28T12:24:01;100613.31;;;16.79;54.87
41800;BME280;27468;47.460;19.034;2024-02-28T12:26:27;100594.16;;;16.91;54.34
41800;BME280;27468;47.460;19.034;2024-02-28T12:28:52;100586.50;;;17.04;54.43
41800;BME280;27468;47.460;19.034;2024-02-28T12:31:18;100581.50;;;16.96;53.74
41800;BME280;27468;47.460;19.034;2024-02-28T12:33:44;100573.59;;;16.74;53.99